createdAt,value
2023-03-08T00:02:58.227Z,100.00
2023-03-08T00:07:01.378Z,100.00
2023-03-08T00:11:29.061Z,100.00
2023-03-08T00:15:32.145Z,100.00
2023-03-08T00:20:25.125Z,100.00
2023-03-08T00:24:28.103Z,100.00
2023-03-08T00:28:35.381Z,100.00
2023-03-08T00:32:38.404Z,100.00
2023-03-08T00:37:46.460Z,100.00
2023-03-08T00:41:49.474Z,100.00
2023-03-08T00:46:52.471Z,100.00
2023-03-08T00:50:55.534Z,100.00
2023-03-08T00:55:23.503Z,100.00
2023-03-08T00:59:26.501Z,100.00
2023-03-08T01:03:30.947Z,100.00
2023-03-08T01:07:34.112Z,100.00
2023-03-08T01:11:38.089Z,100.00
2023-03-08T01:15:41.168Z,100.00
2023-03-08T01:19:44.155Z,100.00
2023-03-08T01:23:47.922Z,100.00
2023-03-08T01:28:48.697Z,100.00
2023-03-08T01:32:51.864Z,100.00
2023-03-08T01:37:31.030Z,100.00
2023-03-08T01:41:34.096Z,100.00
2023-03-08T01:46:15.742Z,100.00
2023-03-08T01:50:19.905Z,100.00
2023-03-08T01:54:29.015Z,100.00
2023-03-08T01:58:32.242Z,100.00
2023-03-08T02:02:43.540Z,100.00
2023-03-08T02:06:46.643Z,100.00
2023-03-08T02:11:05.583Z,100.00
2023-03-08T02:15:11.668Z,100.00
2023-03-08T02:19:43.913Z,100.00
2023-03-08T02:23:46.939Z,100.00
2023-03-08T02:27:53.856Z,100.00
2023-03-08T02:31:56.890Z,100.00
2023-03-08T02:36:06.317Z,100.00
2023-03-08T02:40:11.478Z,100.00
2023-03-08T02:44:21.038Z,100.00
2023-03-08T02:48:23.975Z,100.00
2023-03-08T02:52:27.068Z,100.00
2023-03-08T02:56:31.091Z,100.00
2023-03-08T03:00:37.089Z,100.00
2023-03-08T03:04:40.043Z,100.00
2023-03-08T03:14:06.327Z,100.00
2023-03-08T03:23:09.070Z,100.00
2023-03-08T03:27:12.348Z,100.00
2023-03-08T03:31:18.637Z,100.00
2023-03-08T03:35:21.963Z,100.00
2023-03-08T03:39:25.500Z,100.00
2023-03-08T03:43:29.770Z,100.00
2023-03-08T03:47:33.935Z,100.00
2023-03-08T03:51:37.205Z,100.00
2023-03-08T03:55:40.394Z,100.00
2023-03-08T03:59:43.512Z,100.00
2023-03-08T04:03:47.876Z,100.00
2023-03-08T04:07:50.981Z,100.00
2023-03-08T04:11:54.257Z,100.00
2023-03-08T04:15:57.405Z,100.00
2023-03-08T04:20:01.275Z,100.00
2023-03-08T04:24:04.785Z,100.00
2023-03-08T04:28:08.225Z,100.00
2023-03-08T04:32:11.461Z,100.00
2023-03-08T04:36:15.994Z,100.00
2023-03-08T04:40:19.773Z,100.00
2023-03-08T04:44:23.029Z,100.00
2023-03-08T04:48:26.657Z,100.00
2023-03-08T04:52:30.599Z,100.00
2023-03-08T04:56:33.712Z,100.00
2023-03-08T05:00:36.861Z,100.00
2023-03-08T05:04:40.093Z,100.00
2023-03-08T05:08:43.617Z,100.00
2023-03-08T05:12:46.977Z,100.00
2023-03-08T05:16:50.647Z,100.00
2023-03-08T05:20:58.655Z,100.00
2023-03-08T05:25:01.921Z,100.00
2023-03-08T05:29:06.654Z,100.00
2023-03-08T05:33:09.860Z,100.00
2023-03-08T05:37:13.067Z,100.00
2023-03-08T05:41:17.073Z,100.00
2023-03-08T05:45:20.492Z,100.00
2023-03-08T05:49:23.688Z,100.00
2023-03-08T05:53:27.009Z,100.00
2023-03-08T05:57:30.060Z,100.00
2023-03-08T06:01:33.201Z,99.96
2023-03-08T06:05:36.512Z,99.89
2023-03-08T06:09:39.645Z,98.92
2023-03-08T06:13:43.206Z,97.61
2023-03-08T06:17:46.325Z,97.92
2023-03-08T06:21:49.680Z,98.51
2023-03-08T06:25:52.952Z,99.18
2023-03-08T06:29:56.188Z,99.26
2023-03-08T06:33:59.502Z,98.80
2023-03-08T06:38:04.312Z,98.11
2023-03-08T06:42:08.094Z,97.29
2023-03-08T06:46:14.501Z,96.79
2023-03-08T06:50:18.173Z,96.22
2023-03-08T06:54:22.130Z,95.40
2023-03-08T06:58:26.722Z,95.41
2023-03-08T07:02:29.800Z,94.50
2023-03-08T07:06:33.911Z,94.63
2023-03-08T07:10:37.210Z,94.14
2023-03-08T07:14:40.376Z,94.33
2023-03-08T07:18:43.578Z,95.21
2023-03-08T07:22:47.493Z,94.53
2023-03-08T07:26:50.828Z,94.04
2023-03-08T07:30:54.125Z,96.17
2023-03-08T07:34:58.100Z,95.93
2023-03-08T07:39:01.194Z,94.98
2023-03-08T07:43:04.643Z,94.40
2023-03-08T07:47:08.565Z,93.92
2023-03-08T07:51:12.494Z,92.96
2023-03-08T07:55:16.417Z,92.87
2023-03-08T07:59:19.944Z,91.54
2023-03-08T08:03:23.462Z,91.74
2023-03-08T08:07:26.586Z,91.12
2023-03-08T08:11:29.829Z,90.15
2023-03-08T08:15:33.395Z,90.72
2023-03-08T08:19:37.970Z,91.74
2023-03-08T08:23:42.567Z,91.61
2023-03-08T08:27:45.752Z,91.42
2023-03-08T08:31:49.024Z,90.84
2023-03-08T08:35:52.140Z,90.66
2023-03-08T08:39:55.230Z,90.83
2023-03-08T08:44:00.293Z,91.99
2023-03-08T08:48:03.781Z,92.93
2023-03-08T08:52:08.562Z,93.77
2023-03-08T08:56:25.608Z,91.80
2023-03-08T09:00:31.024Z,89.93
2023-03-08T09:04:34.564Z,87.77
2023-03-08T09:08:38.292Z,90.05
2023-03-08T09:12:42.984Z,88.24
2023-03-08T09:16:46.467Z,85.03
2023-03-08T09:20:49.955Z,84.98
2023-03-08T09:24:53.809Z,85.16
2023-03-08T09:28:58.630Z,83.10
2023-03-08T09:33:02.229Z,81.96
2023-03-08T09:37:07.679Z,82.10
2023-03-08T09:41:20.961Z,85.06
2023-03-08T09:45:28.391Z,82.35
2023-03-08T09:49:33.759Z,82.15
2023-03-08T09:53:49.398Z,80.61
2023-03-08T09:57:56.306Z,80.65
2023-03-08T10:02:24.461Z,79.49
2023-03-08T10:07:12.338Z,79.64
2023-03-08T10:11:28.886Z,81.74
2023-03-08T10:15:36.582Z,81.55
2023-03-08T10:19:51.667Z,81.71
2023-03-08T10:24:15.995Z,82.51
2023-03-08T10:28:22.085Z,82.45
2023-03-08T10:32:26.667Z,82.10
2023-03-08T10:36:29.829Z,80.24
2023-03-08T10:40:32.821Z,80.02
2023-03-08T10:44:58.223Z,80.90
2023-03-08T10:49:16.992Z,79.93
2023-03-08T10:53:20.910Z,79.63
2023-03-08T10:57:26.209Z,80.63
2023-03-08T11:01:32.579Z,79.03
2023-03-08T11:05:35.635Z,79.07
2023-03-08T11:09:38.691Z,77.83
2023-03-08T11:13:47.200Z,77.30
2023-03-08T11:18:07.611Z,78.72
2023-03-08T11:22:44.567Z,79.75
2023-03-08T11:27:14.578Z,79.67
2023-03-08T11:31:52.821Z,79.01
2023-03-08T11:36:04.938Z,79.33
2023-03-08T11:40:22.594Z,81.37
2023-03-08T11:44:40.675Z,83.75
2023-03-08T11:48:55.919Z,84.58
2023-03-08T11:53:30.556Z,84.93
2023-03-08T11:57:38.920Z,85.55
2023-03-08T12:02:10.419Z,84.39
2023-03-08T12:06:41.355Z,86.40
2023-03-08T12:10:56.816Z,86.39
2023-03-08T12:15:28.458Z,84.57
2023-03-08T12:19:31.452Z,82.30
2023-03-08T12:24:03.903Z,81.63
2023-03-08T12:28:34.284Z,82.22
2023-03-08T12:32:39.851Z,80.99
2023-03-08T12:36:44.069Z,81.36
2023-03-08T12:40:50.913Z,80.95
2023-03-08T12:44:54.035Z,81.34
2023-03-08T12:48:57.270Z,81.73
2023-03-08T12:53:00.400Z,82.01
2023-03-08T12:57:14.842Z,81.73
2023-03-08T13:01:32.752Z,82.17
2023-03-08T13:05:38.165Z,80.20
2023-03-08T13:09:47.226Z,80.02
2023-03-08T13:13:58.746Z,80.42
2023-03-08T13:18:04.033Z,81.03
2023-03-08T13:22:18.426Z,80.81
2023-03-08T13:26:49.430Z,80.92
2023-03-08T13:30:58.921Z,82.03
2023-03-08T13:35:04.419Z,83.39
2023-03-08T13:39:19.017Z,83.89
2023-03-08T13:43:23.877Z,84.71
2023-03-08T13:47:33.199Z,84.94
2023-03-08T13:51:36.348Z,85.23
2023-03-08T13:55:43.857Z,85.13
2023-03-08T14:00:01.796Z,85.59
2023-03-08T14:04:11.959Z,85.57
2023-03-08T14:08:27.017Z,86.84
2023-03-08T14:12:32.985Z,88.69
2023-03-08T14:16:39.859Z,89.07
2023-03-08T14:20:43.794Z,90.10
2023-03-08T14:24:59.662Z,91.41
2023-03-08T14:29:34.693Z,93.54
2023-03-08T14:33:42.521Z,95.65
2023-03-08T14:37:47.029Z,96.38
2023-03-08T14:41:50.762Z,97.69
2023-03-08T14:45:58.494Z,98.95
2023-03-08T14:50:07.871Z,99.24
2023-03-08T14:54:42.204Z,100.00
2023-03-08T14:58:49.395Z,100.00
2023-03-08T15:02:53.441Z,100.00
2023-03-08T15:06:56.901Z,100.00
2023-03-08T15:11:00.444Z,100.00
2023-03-08T15:15:13.116Z,100.00
2023-03-08T15:19:16.849Z,100.00
2023-03-08T15:23:24.122Z,100.00
2023-03-08T15:27:30.387Z,100.00
2023-03-08T15:31:34.113Z,100.00
2023-03-08T15:35:40.983Z,100.00
2023-03-08T15:39:45.473Z,100.00
2023-03-08T15:43:48.977Z,100.00
2023-03-08T15:47:59.371Z,100.00
2023-03-08T15:52:02.736Z,100.00
2023-03-08T15:56:06.349Z,100.00
2023-03-08T16:00:13.437Z,100.00
2023-03-08T16:04:17.133Z,100.00
2023-03-08T16:08:25.955Z,100.00
2023-03-08T16:12:29.666Z,100.00
2023-03-08T16:16:44.779Z,100.00
2023-03-08T16:20:50.036Z,100.00
2023-03-08T16:24:53.442Z,100.00
2023-03-08T16:28:57.326Z,100.00
2023-03-08T16:33:00.604Z,100.00
2023-03-08T16:37:05.690Z,100.00
2023-03-08T16:41:13.243Z,100.00
2023-03-08T16:45:17.504Z,100.00
2023-03-08T16:49:22.910Z,100.00
2023-03-08T16:53:27.575Z,100.00
2023-03-08T16:57:31.068Z,100.00
2023-03-08T17:01:35.672Z,100.00
2023-03-08T17:05:40.831Z,100.00
2023-03-08T17:09:44.073Z,100.00
2023-03-08T17:13:52.283Z,100.00
2023-03-08T17:17:57.672Z,100.00
2023-03-08T17:22:01.644Z,100.00
2023-03-08T17:26:09.616Z,100.00
2023-03-08T17:30:14.428Z,100.00
2023-03-08T17:34:20.892Z,100.00
2023-03-08T17:38:24.092Z,100.00
2023-03-08T17:42:27.410Z,100.00
2023-03-08T17:46:31.179Z,100.00
2023-03-08T17:50:35.443Z,100.00
2023-03-08T17:54:38.865Z,100.00
2023-03-08T17:58:42.699Z,100.00
2023-03-08T18:02:46.739Z,100.00
2023-03-08T18:06:50.646Z,100.00
2023-03-08T18:10:54.296Z,100.00
2023-03-08T18:14:58.024Z,100.00
2023-03-08T18:19:04.300Z,100.00
2023-03-08T18:23:07.710Z,100.00
2023-03-08T18:27:11.257Z,100.00
2023-03-08T18:31:23.595Z,100.00
2023-03-08T18:35:26.752Z,100.00
2023-03-08T18:39:30.111Z,100.00
2023-03-08T18:43:33.494Z,100.00
2023-03-08T18:47:37.850Z,100.00
2023-03-08T18:51:42.798Z,100.00
2023-03-08T18:56:00.736Z,100.00
2023-03-08T19:00:10.657Z,100.00
2023-03-08T19:04:14.632Z,100.00
2023-03-08T19:08:19.659Z,100.00
2023-03-08T19:12:23.269Z,100.00
2023-03-08T19:16:29.518Z,100.00
2023-03-08T19:20:36.655Z,100.00
2023-03-08T19:24:39.689Z,100.00
2023-03-08T19:28:42.921Z,100.00
2023-03-08T19:32:48.914Z,100.00
2023-03-08T19:36:52.508Z,100.00
2023-03-08T19:40:56.017Z,100.00
2023-03-08T19:44:59.132Z,100.00
2023-03-08T19:49:02.558Z,100.00
2023-03-08T19:53:06.430Z,100.00
2023-03-08T19:57:11.533Z,100.00
2023-03-08T20:01:18.808Z,100.00
2023-03-08T20:05:22.531Z,100.00
2023-03-08T20:09:25.647Z,100.00
2023-03-08T20:13:30.023Z,100.00
2023-03-08T20:17:33.786Z,100.00
2023-03-08T20:21:37.517Z,100.00
2023-03-08T20:25:43.772Z,100.00
2023-03-08T20:29:46.781Z,100.00
2023-03-08T20:33:53.460Z,100.00
2023-03-08T20:37:56.940Z,100.00
2023-03-08T20:42:00.465Z,100.00
2023-03-08T20:46:09.538Z,100.00
2023-03-08T20:50:12.996Z,100.00
2023-03-08T20:54:16.082Z,100.00
2023-03-08T20:58:19.209Z,100.00
2023-03-08T21:02:22.838Z,100.00
2023-03-08T21:06:28.896Z,100.00
2023-03-08T21:10:36.758Z,100.00
2023-03-08T21:14:42.369Z,100.00
2023-03-08T21:18:49.436Z,100.00
2023-03-08T21:22:53.552Z,100.00
2023-03-08T21:26:57.002Z,100.00
2023-03-08T21:31:00.618Z,100.00
2023-03-08T21:35:04.390Z,100.00
2023-03-08T21:39:08.517Z,100.00
2023-03-08T21:43:12.256Z,100.00
2023-03-08T21:47:15.480Z,100.00
2023-03-08T21:51:20.171Z,100.00
2023-03-08T21:55:23.707Z,100.00
2023-03-08T21:59:29.070Z,100.00
2023-03-08T22:03:33.605Z,100.00
2023-03-08T22:07:36.942Z,100.00
2023-03-08T22:11:40.498Z,100.00
2023-03-08T22:15:44.166Z,100.00
2023-03-08T22:19:48.760Z,100.00
2023-03-08T22:23:53.412Z,100.00
2023-03-08T22:27:57.101Z,100.00
2023-03-08T22:32:01.236Z,100.00
2023-03-08T22:36:09.987Z,100.00
2023-03-08T22:40:13.537Z,100.00
2023-03-08T22:44:17.078Z,100.00
2023-03-08T22:48:20.442Z,100.00
2023-03-08T22:52:24.539Z,100.00
2023-03-08T22:56:33.443Z,100.00
2023-03-08T23:00:36.904Z,100.00
2023-03-08T23:04:40.837Z,100.00
2023-03-08T23:08:44.252Z,100.00
2023-03-08T23:12:47.734Z,100.00
2023-03-08T23:16:51.316Z,100.00
2023-03-08T23:20:54.715Z,100.00
2023-03-08T23:25:25.507Z,100.00
2023-03-08T23:29:28.830Z,100.00
2023-03-08T23:33:32.359Z,100.00
2023-03-08T23:37:36.657Z,100.00
2023-03-08T23:41:41.223Z,100.00
2023-03-08T23:45:44.513Z,100.00
2023-03-08T23:49:48.937Z,100.00
2023-03-08T23:53:53.968Z,100.00
2023-03-08T23:57:57.403Z,100.00
